Time;durP1;ratioP1;P1;durP2;ratioP2;P2;SDS_P1;SDS_P2;PMS_P1;PMS_P2;Temp;Humidity;BMP_temperature;BMP_pressure;BME280_temperature;BME280_humidity;BME280_pressure;Samples;Min_cycle;Max_cycle;Signal;HPM_P1;HPM_P2
2023/08/14 00:02:10;;;;;;;3.92;2.88;;;15.90;99.90;;;;;;5027100;28;20661;-78
2023/08/14 00:04:36;;;;;;;4.65;3.30;;;15.90;99.90;;;;;;5024118;28;20268;-77
2023/08/14 00:07:02;;;;;;;4.70;3.15;;;16.00;99.90;;;;;;5025474;28;20182;-77
2023/08/14 00:09:27;;;;;;;3.00;2.70;;;16.10;1.00;;;;;;5006739;28;20168;-77
2023/08/14 00:11:53;;;;;;;3.20;2.90;;;16.10;99.90;;;;;;5024553;28;20627;-76
2023/08/14 00:14:18;;;;;;;5.45;3.33;;;16.10;99.90;;;;;;5006009;28;20542;-77
2023/08/14 00:16:45;;;;;;;3.47;2.70;;;16.10;99.90;;;;;;5007418;28;20293;-77
2023/08/14 00:19:11;;;;;;;4.25;3.08;;;16.30;1.00;;;;;;5024017;28;20639;-77
2023/08/14 00:21:36;;;;;;;3.85;3.30;;;16.40;1.00;;;;;;5023535;28;20270;-77
2023/08/14 00:24:02;;;;;;;3.08;2.88;;;16.50;54.20;;;;;;5024138;28;20278;-78
2023/08/14 00:26:28;;;;;;;5.75;3.20;;;16.50;99.90;;;;;;5023299;28;20183;-77
2023/08/14 00:28:53;;;;;;;4.47;2.88;;;16.60;64.00;;;;;;5022095;28;20179;-77
2023/08/14 00:31:19;;;;;;;5.82;3.30;;;16.50;1.00;;;;;;5015100;28;20179;-77
2023/08/14 00:33:45;;;;;;;5.47;3.47;;;16.10;99.90;;;;;;5015006;28;20698;-78
2023/08/14 00:36:10;;;;;;;3.50;2.80;;;16.40;99.90;;;;;;4997001;28;20208;-78
2023/08/14 00:38:36;;;;;;;3.70;2.90;;;16.40;99.90;;;;;;5015094;28;20180;-77
2023/08/14 00:41:02;;;;;;;3.80;3.13;;;16.30;1.00;;;;;;5015030;28;20175;-77
2023/08/14 00:43:27;;;;;;;3.70;2.95;;;16.40;1.00;;;;;;5014857;28;20195;-77
2023/08/14 00:45:57;;;;;;;3.92;3.28;;;16.40;99.90;;;;;;5013864;28;20188;-77
2023/08/14 00:48:24;;;;;;;4.47;3.00;;;16.40;99.90;;;;;;5031426;28;20198;-76
2023/08/14 00:50:51;;;;;;;4.18;2.85;;;16.30;99.90;;;;;;5032975;28;20226;-78
2023/08/14 00:53:18;;;;;;;3.30;3.05;;;16.40;99.90;;;;;;5032139;28;20202;-78
2023/08/14 00:55:44;;;;;;;5.97;3.15;;;16.30;99.90;;;;;;5015131;28;20251;-77
2023/08/14 00:58:11;;;;;;;5.63;3.60;;;16.20;1.00;;;;;;5034483;28;20175;-78
2023/08/14 01:00:37;;;;;;;5.30;3.58;;;16.10;1.00;;;;;;5034301;28;20178;-77
2023/08/14 01:03:03;;;;;;;4.00;3.00;;;15.90;1.00;;;;;;5021352;28;20191;-76
2023/08/14 01:06:00;;;;;;;4.15;3.00;;;15.80;1.00;;;;;;4996155;28;20184;-78
2023/08/14 01:08:27;;;;;;;4.03;2.90;;;15.70;1.00;;;;;;5013939;28;20175;-77
2023/08/14 01:10:59;;;;;;;4.30;3.10;;;15.60;1.00;;;;;;5012441;28;20191;-77
2023/08/14 01:13:35;;;;;;;4.82;3.28;;;15.60;91.80;;;;;;5012577;28;20199;-77
2023/08/14 01:16:06;;;;;;;4.43;3.42;;;15.50;98.60;;;;;;5024957;28;20204;-76
2023/08/14 01:18:36;;;;;;;4.07;3.20;;;15.60;99.90;;;;;;5015595;28;20204;-79
2023/08/14 01:21:13;;;;;;;4.82;3.00;;;15.70;1.00;;;;;;5020524;28;20175;-77
2023/08/14 01:24:00;;;;;;;3.38;3.08;;;15.80;61.80;;;;;;5033580;28;20201;-77
2023/08/14 01:26:27;;;;;;;5.00;2.80;;;15.80;1.00;;;;;;5033311;28;20178;-77
2023/08/14 01:28:54;;;;;;;4.88;3.15;;;15.90;99.90;;;;;;5033749;28;20598;-76
2023/08/14 01:31:20;;;;;;;3.55;3.10;;;15.90;1.00;;;;;;5033822;28;20171;-77
2023/08/14 01:33:45;;;;;;;3.80;3.10;;;16.00;99.90;;;;;;5021057;28;20210;-76
2023/08/14 01:36:35;;;;;;;3.22;2.60;;;16.00;1.00;;;;;;5011884;28;20203;-78
2023/08/14 01:39:07;;;;;;;3.85;2.92;;;16.00;1.00;;;;;;5011925;28;20168;-77
2023/08/14 01:41:45;;;;;;;6.75;3.22;;;16.10;99.90;;;;;;5012056;28;20652;-77
2023/08/14 01:44:14;;;;;;;5.25;3.28;;;16.20;1.00;;;;;;5011917;28;20237;-76
2023/08/14 01:46:42;;;;;;;4.93;3.03;;;16.20;99.90;;;;;;5011828;28;20172;-77
2023/08/14 01:49:11;;;;;;;5.05;3.00;;;16.20;99.90;;;;;;5011974;28;20176;-77
2023/08/14 01:51:38;;;;;;;4.25;2.83;;;16.20;1.00;;;;;;5013616;28;20253;-78
2023/08/14 01:54:04;;;;;;;6.20;3.20;;;16.10;1.00;;;;;;5013390;28;20195;-77
2023/08/14 01:56:30;;;;;;;4.72;3.40;;;16.00;1.00;;;;;;5013086;28;20195;-76
2023/08/14 01:58:55;;;;;;;2.85;2.55;;;16.00;1.00;;;;;;5014703;28;20187;-76
2023/08/14 02:01:21;;;;;;;4.65;2.83;;;15.90;1.00;;;;;;5013735;28;20250;-76
2023/08/14 02:03:46;;;;;;;4.93;2.75;;;16.00;10.30;;;;;;5013353;28;20283;-77
2023/08/14 02:06:12;;;;;;;4.05;2.70;;;16.00;1.00;;;;;;5012705;28;20172;-77
2023/08/14 02:08:38;;;;;;;3.60;2.80;;;15.90;1.00;;;;;;5013461;28;20171;-76
2023/08/14 02:11:07;;;;;;;5.68;3.00;;;15.90;1.00;;;;;;5013518;28;20266;-76
2023/08/14 02:13:33;;;;;;;3.22;2.92;;;16.00;1.00;;;;;;5013629;28;20265;-77
2023/08/14 02:15:58;;;;;;;5.05;2.83;;;16.00;1.00;;;;;;5019869;28;20581;-77
2023/08/14 02:18:24;;;;;;;3.20;2.53;;;15.80;99.90;;;;;;5033555;28;20167;-76
2023/08/14 02:20:52;;;;;;;4.03;2.83;;;15.60;99.90;;;;;;5033399;28;20166;-77
2023/08/14 02:23:18;;;;;;;4.18;3.08;;;15.50;99.90;;;;;;5030327;28;20669;-77
2023/08/14 02:25:44;;;;;;;3.58;2.80;;;15.60;8.50;;;;;;5012119;28;20229;-77
2023/08/14 02:28:10;;;;;;;3.75;3.00;;;15.60;1.00;;;;;;5031247;28;20167;-77
2023/08/14 02:30:38;;;;;;;3.60;2.50;;;15.80;99.90;;;;;;5015143;28;20183;-77
2023/08/14 02:33:04;;;;;;;5.20;3.03;;;15.90;99.90;;;;;;5033038;28;20191;-77
2023/08/14 02:35:29;;;;;;;3.35;2.97;;;15.80;99.90;;;;;;5032681;28;20195;-77
2023/08/14 02:37:55;;;;;;;3.10;2.70;;;15.90;99.90;;;;;;5033065;28;20170;-77
2023/08/14 02:40:20;;;;;;;4.00;2.60;;;15.90;1.00;;;;;;5032438;28;20170;-77
2023/08/14 02:42:46;;;;;;;5.53;2.50;;;16.00;48.00;;;;;;5033006;28;20171;-77
2023/08/14 02:45:12;;;;;;;4.63;3.03;;;16.00;1.00;;;;;;5032716;28;20257;-76
2023/08/14 02:47:38;;;;;;;6.13;2.90;;;16.00;1.00;;;;;;5032997;28;20174;-76
2023/08/14 02:50:04;;;;;;;3.80;2.60;;;16.00;1.00;;;;;;5032999;28;20171;-77
2023/08/14 02:52:30;;;;;;;3.95;2.42;;;16.00;1.00;;;;;;5032934;28;20167;-78
2023/08/14 02:54:56;;;;;;;8.52;2.80;;;16.10;1.00;;;;;;5029814;28;20195;-77
2023/08/14 02:57:21;;;;;;;4.03;2.80;;;16.10;1.00;;;;;;5013171;28;20630;-76
2023/08/14 02:59:47;;;;;;;2.28;2.08;;;16.10;1.00;;;;;;4995657;28;20168;-77
2023/08/14 03:02:13;;;;;;;3.13;2.63;;;16.10;1.00;;;;;;5013258;28;20183;-77
2023/08/14 03:04:39;;;;;;;3.45;2.28;;;16.20;1.00;;;;;;5013088;28;20196;-77
2023/08/14 03:07:04;;;;;;;4.53;2.80;;;16.20;1.00;;;;;;5012722;28;20203;-77
2023/08/14 03:09:30;;;;;;;3.63;2.72;;;16.10;1.00;;;;;;5001575;28;20175;-77
2023/08/14 03:11:55;;;;;;;5.35;2.63;;;16.00;99.90;;;;;;5036955;28;20232;-77
2023/08/14 03:14:21;;;;;;;5.32;3.38;;;15.90;99.90;;;;;;5018663;28;20206;-77
2023/08/14 03:16:47;;;;;;;3.20;2.67;;;15.90;99.90;;;;;;5017996;28;20309;-77
2023/08/14 03:19:12;;;;;;;3.80;2.97;;;15.90;1.00;;;;;;5018694;28;20229;-77
2023/08/14 03:21:38;;;;;;;4.75;2.95;;;15.80;1.00;;;;;;5036277;28;20320;-78
2023/08/14 03:24:04;;;;;;;3.70;2.50;;;15.80;99.90;;;;;;5029598;28;20191;-77
2023/08/14 03:26:29;;;;;;;4.30;2.80;;;15.90;99.90;;;;;;5015915;28;20183;-77
2023/08/14 03:28:55;;;;;;;3.30;2.70;;;16.00;83.00;;;;;;5016561;28;20178;-76
2023/08/14 03:31:21;;;;;;;6.10;2.90;;;16.00;1.00;;;;;;5016498;28;20533;-77
2023/08/14 03:33:46;;;;;;;4.78;2.65;;;16.10;1.00;;;;;;5016092;28;20262;-77
2023/08/14 03:36:12;;;;;;;4.03;2.85;;;16.00;1.00;;;;;;5015655;28;20231;-77
2023/08/14 03:38:37;;;;;;;3.63;2.80;;;16.10;1.00;;;;;;5024135;28;20182;-77
2023/08/14 03:41:04;;;;;;;4.38;3.00;;;16.20;1.00;;;;;;5036114;28;20170;-77
2023/08/14 03:43:30;;;;;;;5.03;2.80;;;16.30;99.90;;;;;;5035742;28;20187;-76
2023/08/14 03:45:55;;;;;;;2.83;2.60;;;16.40;99.90;;;;;;5035459;28;20254;-77
2023/08/14 03:48:21;;;;;;;4.78;2.90;;;16.50;99.90;;;;;;5018066;28;20638;-77
2023/08/14 03:50:47;;;;;;;2.65;2.45;;;16.50;1.00;;;;;;5018501;28;20195;-76
2023/08/14 03:53:13;;;;;;;3.20;2.63;;;16.50;99.90;;;;;;5015964;28;20191;-78
2023/08/14 03:55:39;;;;;;;3.92;2.78;;;16.50;99.90;;;;;;5015329;28;20191;-77
2023/08/14 03:58:04;;;;;;;4.45;3.20;;;16.50;99.90;;;;;;5016098;28;20656;-77
2023/08/14 04:00:30;;;;;;;3.13;2.80;;;16.60;99.90;;;;;;5015884;28;20175;-77
2023/08/14 04:02:56;;;;;;;4.35;3.13;;;16.60;1.00;;;;;;5015506;28;20274;-77
2023/08/14 04:05:21;;;;;;;5.50;2.70;;;16.60;1.00;;;;;;5034123;28;20187;-77
2023/08/14 04:07:47;;;;;;;3.30;2.97;;;16.50;1.00;;;;;;5035512;28;20313;-77
2023/08/14 04:10:13;;;;;;;10.00;2.90;;;16.50;1.00;;;;;;5035560;28;20716;-77
2023/08/14 04:12:38;;;;;;;4.25;2.67;;;16.50;1.00;;;;;;5035219;28;20660;-77
2023/08/14 04:15:17;;;;;;;6.00;3.25;;;16.40;1.00;;;;;;5034922;28;20333;-77
2023/08/14 04:17:43;;;;;;;4.82;3.10;;;16.40;1.00;;;;;;5032170;28;21223;-76
2023/08/14 04:20:09;;;;;;;3.35;2.97;;;16.30;87.90;;;;;;4997465;28;20245;-77
2023/08/14 04:22:35;;;;;;;2.90;2.42;;;16.30;99.90;;;;;;5014777;28;20258;-77
2023/08/14 04:25:01;;;;;;;3.28;2.60;;;16.30;99.90;;;;;;4997464;28;20777;-77
2023/08/14 04:27:26;;;;;;;3.17;2.72;;;16.30;99.90;;;;;;5015328;28;20198;-76
2023/08/14 04:29:52;;;;;;;5.30;2.83;;;16.20;27.00;;;;;;5015278;28;20168;-77
2023/08/14 04:32:17;;;;;;;3.47;3.17;;;16.20;99.90;;;;;;5019874;28;20179;-78
2023/08/14 04:34:43;;;;;;;4.38;3.10;;;16.20;78.80;;;;;;5034109;28;20550;-78
2023/08/14 04:37:09;;;;;;;12.02;3.45;;;16.30;8.00;;;;;;5034688;28;20695;-78
2023/08/14 04:39:34;;;;;;;4.30;2.90;;;16.30;1.00;;;;;;5034911;28;20198;-77
2023/08/14 04:42:00;;;;;;;3.85;2.83;;;16.40;1.00;;;;;;5034842;28;20217;-77
2023/08/14 04:44:25;;;;;;;4.65;3.40;;;16.50;1.00;;;;;;5034595;28;20186;-77
2023/08/14 04:46:51;;;;;;;3.55;3.05;;;16.60;1.00;;;;;;5027306;28;20191;-78
2023/08/14 04:49:17;;;;;;;5.10;2.70;;;16.60;1.00;;;;;;4997417;28;20509;-77
2023/08/14 04:51:42;;;;;;;3.03;2.63;;;16.70;1.00;;;;;;5014941;28;20171;-78
2023/08/14 04:54:08;;;;;;;3.38;2.63;;;16.70;99.90;;;;;;4997072;28;20667;-77
2023/08/14 04:56:34;;;;;;;5.15;2.80;;;16.60;1.00;;;;;;5014227;28;20602;-77
2023/08/14 04:59:00;;;;;;;6.10;3.05;;;16.60;1.00;;;;;;5014590;28;20164;-77
2023/08/14 05:01:26;;;;;;;3.63;2.70;;;16.80;1.00;;;;;;5023238;28;20625;-77
2023/08/14 05:03:51;;;;;;;4.45;2.20;;;16.90;1.00;;;;;;5016805;28;20286;-78
2023/08/14 05:06:17;;;;;;;3.63;2.33;;;17.00;1.00;;;;;;5033840;28;20175;-78
2023/08/14 05:08:42;;;;;;;5.30;2.90;;;17.10;99.90;;;;;;5034447;28;20167;-77
2023/08/14 05:11:08;;;;;;;4.25;2.67;;;17.30;1.00;;;;;;5034356;28;20186;-76
2023/08/14 05:13:34;;;;;;;2.78;2.45;;;17.30;1.00;;;;;;5034051;28;20195;-77
2023/08/14 05:15:59;;;;;;;3.95;2.55;;;17.60;1.00;;;;;;5021840;28;20283;-77
2023/08/14 05:18:25;;;;;;;2.42;2.22;;;17.90;1.00;;;;;;5014415;28;20202;-77
2023/08/14 05:23:26;;;;;;;2.47;2.25;;;19.10;2.00;;;;;;5011194;23;20289;-77
2023/08/14 05:25:51;;;;;;;4.97;2.30;;;19.30;1.00;;;;;;4994023;28;20192;-78
2023/08/14 05:28:17;;;;;;;3.78;2.47;;;19.80;1.00;;;;;;4994267;28;20639;-78
2023/08/14 05:30:45;;;;;;;5.28;2.35;;;20.90;1.00;;;;;;4994235;28;20252;-77
2023/08/14 05:33:11;;;;;;;3.92;2.20;;;21.50;1.00;;;;;;4994184;28;20275;-78
2023/08/14 05:35:37;;;;;;;3.47;2.10;;;21.60;99.90;;;;;;4993895;28;20574;-77
2023/08/14 05:38:02;;;;;;;2.78;2.28;;;21.50;99.90;;;;;;4994654;28;20195;-78
2023/08/14 05:40:28;;;;;;;3.53;2.20;;;21.80;99.90;;;;;;4977395;28;20212;-77
2023/08/14 05:43:08;;;;;;;4.05;2.47;;;21.70;99.90;;;;;;4994131;28;20199;-77
2023/08/14 05:45:45;;;;;;;4.38;2.00;;;21.50;99.90;;;;;;4993637;28;20176;-77
2023/08/14 05:48:11;;;;;;;2.50;2.30;;;21.40;99.90;;;;;;4994271;28;20164;-77
2023/08/14 05:50:38;;;;;;;4.60;2.33;;;21.20;99.90;;;;;;4975490;28;20238;-77
2023/08/14 05:53:05;;;;;;;4.00;2.35;;;20.80;99.90;;;;;;4993644;28;20242;-78
2023/08/14 05:55:35;;;;;;;3.30;2.10;;;21.00;99.90;;;;;;4989884;28;20205;-78
2023/08/14 05:58:02;;;;;;;4.00;2.15;;;21.70;99.90;;;;;;4987566;28;20176;-78
2023/08/14 06:00:29;;;;;;;3.88;1.90;;;23.20;99.90;;;;;;4994061;28;20537;-77
2023/08/14 06:02:55;;;;;;;3.05;2.05;;;24.00;99.90;;;;;;4993913;28;20275;-78
2023/08/14 06:05:21;;;;;;;2.80;2.05;;;24.10;99.90;;;;;;4991730;28;20770;-78
2023/08/14 06:07:48;;;;;;;3.65;2.20;;;24.40;99.90;;;;;;5004959;28;20164;-78
2023/08/14 06:10:14;;;;;;;3.00;1.90;;;24.90;99.90;;;;;;5014038;28;20254;-78
2023/08/14 06:12:39;;;;;;;4.38;2.25;;;25.40;99.90;;;;;;5007987;28;20642;-78
2023/08/14 06:15:06;;;;;;;4.05;2.75;;;24.80;99.90;;;;;;4993538;28;20251;-77
2023/08/14 06:17:34;;;;;;;3.63;2.17;;;23.90;93.90;;;;;;4993872;28;20528;-78
2023/08/14 06:20:01;;;;;;;4.93;2.72;;;23.20;88.00;;;;;;4992853;28;20628;-78
2023/08/14 06:22:26;;;;;;;5.30;2.30;;;22.60;99.90;;;;;;4991556;28;20551;-78
2023/08/14 06:24:52;;;;;;;5.05;2.42;;;23.10;99.90;;;;;;4991558;28;20271;-77
2023/08/14 06:27:18;;;;;;;3.00;1.95;;;23.10;99.90;;;;;;4974817;28;20180;-77
2023/08/14 06:29:44;;;;;;;4.18;2.08;;;23.10;99.90;;;;;;4989361;28;20177;-77
2023/08/14 06:32:09;;;;;;;4.47;2.45;;;23.30;99.90;;;;;;4955775;28;20188;-77
2023/08/14 06:34:35;;;;;;;3.65;2.08;;;24.00;99.90;;;;;;4973551;28;20199;-78
2023/08/14 06:37:01;;;;;;;3.40;1.85;;;24.70;95.70;;;;;;4974983;28;20279;-78
2023/08/14 06:39:27;;;;;;;3.75;2.10;;;25.10;18.30;;;;;;4999279;28;20184;-78
2023/08/14 06:41:52;;;;;;;3.67;2.00;;;24.50;22.00;;;;;;5004009;28;20267;-77
2023/08/14 06:44:18;;;;;;;2.78;2.08;;;24.00;15.50;;;;;;4994701;28;20666;-77
2023/08/14 06:46:43;;;;;;;3.65;2.03;;;23.60;61.30;;;;;;4996592;28;20184;-78
2023/08/14 06:49:10;;;;;;;3.80;2.20;;;24.00;17.40;;;;;;4996103;28;20251;-77
2023/08/14 06:51:37;;;;;;;5.07;1.95;;;24.20;16.30;;;;;;5007679;28;20176;-77
2023/08/14 06:54:03;;;;;;;4.18;2.40;;;24.60;11.30;;;;;;5010435;28;20196;-76
2023/08/14 06:56:29;;;;;;;2.35;1.55;;;24.50;7.90;;;;;;5016509;28;20207;-76
2023/08/14 06:58:54;;;;;;;3.85;1.95;;;25.00;1.00;;;;;;5002448;28;20259;-77
2023/08/14 07:01:21;;;;;;;2.58;2.33;;;24.60;1.00;;;;;;4997471;28;20319;-77
2023/08/14 07:03:46;;;;;;;5.75;2.22;;;24.20;5.40;;;;;;4997069;28;20199;-76
2023/08/14 07:06:12;;;;;;;3.13;1.90;;;23.90;1.00;;;;;;4996790;28;20176;-78
2023/08/14 07:08:38;;;;;;;3.53;1.88;;;23.80;1.00;;;;;;4997144;28;20181;-77
2023/08/14 07:11:04;;;;;;;5.63;1.90;;;23.80;3.00;;;;;;4997396;28;20172;-77
2023/08/14 07:13:30;;;;;;;7.78;2.80;;;25.10;1.00;;;;;;4996928;28;20200;-78
2023/08/14 07:15:55;;;;;;;8.20;3.10;;;26.60;1.00;;;;;;4996541;28;20647;-78
2023/08/14 07:18:21;;;;;;;7.20;2.80;;;27.60;1.00;;;;;;4997127;28;20649;-77
2023/08/14 07:20:48;;;;;;;4.47;2.15;;;27.30;1.00;;;;;;4997110;28;20607;-77
2023/08/14 07:23:18;;;;;;;3.80;1.90;;;25.70;1.00;;;;;;4996786;28;20239;-78
2023/08/14 07:25:44;;;;;;;3.92;2.05;;;25.40;1.00;;;;;;4996449;28;20184;-77
2023/08/14 07:28:10;;;;;;;2.15;1.95;;;25.00;1.00;;;;;;4997037;28;20164;-77
2023/08/14 07:30:37;;;;;;;3.15;1.85;;;24.60;1.00;;;;;;4997156;28;20172;-79
2023/08/14 07:33:04;;;;;;;4.63;2.28;;;24.30;1.00;;;;;;4996620;28;20231;-77
2023/08/14 07:35:30;;;;;;;4.50;2.28;;;24.30;1.00;;;;;;4996043;28;20191;-78
2023/08/14 07:37:57;;;;;;;4.47;2.20;;;24.10;1.00;;;;;;4996638;28;20243;-79
2023/08/14 07:40:24;;;;;;;4.43;2.17;;;23.90;1.00;;;;;;4995579;28;20177;-77
2023/08/14 07:42:49;;;;;;;3.15;1.88;;;23.70;1.00;;;;;;4976803;28;20694;-78
2023/08/14 07:45:15;;;;;;;2.85;2.05;;;23.60;1.00;;;;;;4976401;28;20267;-77
2023/08/14 07:47:41;;;;;;;3.40;2.00;;;23.80;1.00;;;;;;4995233;28;20254;-78
2023/08/14 07:50:07;;;;;;;3.05;1.75;;;23.70;1.00;;;;;;5005780;28;20172;-76
2023/08/14 07:52:34;;;;;;;3.40;1.70;;;23.70;1.00;;;;;;5013623;28;20176;-77
2023/08/14 07:55:00;;;;;;;2.78;1.92;;;23.90;1.00;;;;;;5012428;28;20178;-77
2023/08/14 07:57:27;;;;;;;2.60;1.60;;;24.20;1.00;;;;;;4974701;28;20531;-76
2023/08/14 07:59:52;;;;;;;2.70;1.60;;;24.10;1.00;;;;;;4974930;28;20176;-77
2023/08/14 08:02:18;;;;;;;2.67;1.70;;;24.20;1.00;;;;;;4975307;28;20172;-77
2023/08/14 08:04:44;;;;;;;5.80;2.00;;;24.30;1.00;;;;;;4976303;28;20643;-77
2023/08/14 08:07:10;;;;;;;2.45;1.70;;;24.40;1.00;;;;;;4976357;28;20180;-77
2023/08/14 08:09:36;;;;;;;3.40;1.92;;;24.40;1.00;;;;;;4959828;28;20181;-77
2023/08/14 08:12:02;;;;;;;4.72;2.35;;;24.40;1.00;;;;;;4963204;28;20176;-76
2023/08/14 08:14:28;;;;;;;3.42;1.88;;;24.50;1.00;;;;;;4995890;28;20254;-78
2023/08/14 08:16:54;;;;;;;3.45;2.20;;;24.80;1.00;;;;;;4995207;28;20199;-78
2023/08/14 08:19:20;;;;;;;3.53;1.85;;;24.70;1.00;;;;;;4996358;28;20156;-78
2023/08/14 08:21:45;;;;;;;5.00;1.90;;;24.70;1.00;;;;;;4995807;28;20180;-79
2023/08/14 08:24:11;;;;;;;3.83;2.25;;;24.80;1.00;;;;;;4995513;28;20219;-78
2023/08/14 08:26:37;;;;;;;3.35;1.63;;;24.80;1.00;;;;;;4995415;28;20161;-78
2023/08/14 08:29:05;;;;;;;3.10;1.95;;;24.80;1.00;;;;;;4978212;28;20546;-78
2023/08/14 08:31:31;;;;;;;3.05;1.70;;;24.90;1.00;;;;;;4978260;28;20183;-77
2023/08/14 08:33:57;;;;;;;1.90;1.70;;;24.90;1.00;;;;;;4995537;28;20192;-79
2023/08/14 08:36:24;;;;;;;2.58;1.73;;;24.90;1.00;;;;;;4995028;28;20261;-79
2023/08/14 08:38:50;;;;;;;3.90;2.03;;;24.80;1.00;;;;;;4996063;28;20598;-81
2023/08/14 08:41:31;;;;;;;2.33;1.85;;;24.80;1.00;;;;;;4978314;28;20204;-80
2023/08/14 08:44:09;;;;;;;4.53;2.13;;;24.80;1.00;;;;;;4995206;28;20184;-79
2023/08/14 08:46:37;;;;;;;4.22;2.08;;;24.80;1.00;;;;;;4994978;28;20160;-79
2023/08/14 08:49:03;;;;;;;2.30;1.70;;;24.90;1.00;;;;;;4995295;28;20157;-79
2023/08/14 08:51:30;;;;;;;3.45;1.98;;;25.00;1.00;;;;;;4995653;28;20259;-79
2023/08/14 08:53:58;;;;;;;4.57;2.08;;;25.00;1.00;;;;;;4994985;28;20199;-80
2023/08/14 08:56:26;;;;;;;2.80;1.90;;;25.10;1.00;;;;;;4994437;28;20327;-79
2023/08/14 08:58:52;;;;;;;5.30;1.90;;;25.30;1.00;;;;;;4995392;28;20203;-81
2023/08/14 09:01:19;;;;;;;3.05;1.70;;;25.40;1.00;;;;;;4995242;28;20156;-82
2023/08/14 09:03:45;;;;;;;2.85;1.95;;;25.50;1.00;;;;;;4977647;28;20203;-79
2023/08/14 09:06:11;;;;;;;5.15;1.77;;;25.60;1.00;;;;;;4994574;28;20179;-80
2023/08/14 09:08:36;;;;;;;4.93;2.03;;;25.70;1.00;;;;;;4994801;28;20176;-81
2023/08/14 09:11:02;;;;;;;2.65;2.10;;;25.70;1.00;;;;;;4995162;28;20491;-81
2023/08/14 09:13:28;;;;;;;4.43;1.77;;;25.90;1.00;;;;;;4994944;28;20527;-80
2023/08/14 09:15:54;;;;;;;3.58;1.80;;;26.10;1.00;;;;;;4976784;28;20207;-80
2023/08/14 09:18:19;;;;;;;2.30;2.05;;;26.50;1.00;;;;;;4977715;28;20179;-76
2023/08/14 09:20:45;;;;;;;3.72;1.90;;;26.80;1.00;;;;;;4995093;28;20152;-80
2023/08/14 09:23:12;;;;;;;2.47;1.92;;;27.00;1.00;;;;;;4994637;28;20298;-80
2023/08/14 09:25:40;;;;;;;4.43;2.05;;;27.10;1.00;;;;;;4994333;28;20535;-80
2023/08/14 09:28:09;;;;;;;3.25;2.03;;;27.20;1.00;;;;;;4994836;28;20240;-81
2023/08/14 09:30:39;;;;;;;3.13;1.75;;;27.50;1.00;;;;;;4994880;28;20248;-78
2023/08/14 09:33:08;;;;;;;5.57;2.22;;;27.60;1.00;;;;;;4994592;28;20263;-81
2023/08/14 09:35:39;;;;;;;3.92;1.90;;;27.90;1.00;;;;;;4994452;28;20180;-79
2023/08/14 09:38:05;;;;;;;4.20;2.28;;;28.10;1.00;;;;;;4994950;28;20152;-78
2023/08/14 09:40:32;;;;;;;2.17;1.98;;;28.10;1.00;;;;;;4994745;28;20616;-77
2023/08/14 09:42:58;;;;;;;2.30;1.90;;;28.50;1.00;;;;;;4977056;28;20196;-77
2023/08/14 09:45:28;;;;;;;3.08;2.25;;;28.40;1.00;;;;;;4984104;28;20184;-78
2023/08/14 09:48:00;;;;;;;4.05;2.30;;;28.30;1.00;;;;;;4980926;28;20259;-76
2023/08/14 09:50:29;;;;;;;3.83;1.98;;;28.30;1.00;;;;;;4984221;28;20164;-77
2023/08/14 09:53:00;;;;;;;3.30;1.92;;;28.10;1.00;;;;;;4999450;23;20204;-78
2023/08/14 09:55:30;;;;;;;2.78;2.15;;;28.20;1.00;;;;;;4999018;28;20240;-78
2023/08/14 09:57:56;;;;;;;2.50;2.20;;;28.20;1.00;;;;;;5019419;28;20179;-77
2023/08/14 10:00:28;;;;;;;3.30;2.30;;;28.60;1.00;;;;;;5014448;28;20644;-79
2023/08/14 10:02:55;;;;;;;2.30;2.10;;;28.60;1.00;;;;;;5010473;28;20202;-77
2023/08/14 10:05:22;;;;;;;2.40;2.10;;;28.60;1.00;;;;;;5016782;28;20182;-77
2023/08/14 10:07:52;;;;;;;3.10;2.10;;;28.90;1.00;;;;;;5024509;28;20193;-79
2023/08/14 10:10:19;;;;;;;4.07;2.40;;;28.40;1.00;;;;;;5017988;28;20175;-79
2023/08/14 10:12:56;;;;;;;3.15;1.90;;;28.50;1.00;;;;;;5013595;28;20174;-79
2023/08/14 10:15:27;;;;;;;2.00;1.80;;;29.00;1.00;;;;;;4997840;28;20206;-78
2023/08/14 10:17:58;;;;;;;2.55;1.80;;;29.40;1.00;;;;;;5013674;28;20154;-78
2023/08/14 10:20:30;;;;;;;2.42;2.10;;;29.40;1.00;;;;;;5016597;28;20159;-77
2023/08/14 10:22:57;;;;;;;2.63;1.92;;;29.40;1.00;;;;;;5025625;28;20274;-78
2023/08/14 10:25:23;;;;;;;3.40;2.30;;;29.50;1.00;;;;;;5017199;28;20716;-78
2023/08/14 10:27:53;;;;;;;3.95;2.03;;;29.50;1.00;;;;;;5017564;28;20191;-77
2023/08/14 10:30:24;;;;;;;5.45;2.33;;;29.10;1.00;;;;;;5017516;28;20203;-78
2023/08/14 10:32:51;;;;;;;2.50;2.13;;;29.10;1.00;;;;;;5016182;28;20183;-77
2023/08/14 10:35:17;;;;;;;4.43;2.13;;;29.40;1.00;;;;;;5024055;28;20665;-78
2023/08/14 10:37:47;;;;;;;3.97;2.22;;;29.10;1.00;;;;;;5000919;28;20225;-78
2023/08/14 10:40:19;;;;;;;5.65;2.90;;;29.00;1.00;;;;;;5017670;28;20176;-76
2023/08/14 10:42:46;;;;;;;3.17;2.10;;;29.10;1.00;;;;;;5017063;28;20650;-78
2023/08/14 10:45:15;;;;;;;3.05;2.10;;;28.90;1.00;;;;;;5007538;28;20624;-79
2023/08/14 10:47:42;;;;;;;3.80;2.08;;;29.10;1.00;;;;;;5013276;28;20207;-79
2023/08/14 10:50:25;;;;;;;3.90;2.00;;;29.20;1.00;;;;;;5015606;28;20180;-78
2023/08/14 10:55:39;;;;;;;2.80;2.50;;;29.40;1.00;;;;;;5484978;22;20235;-80
2023/08/14 10:58:36;;;;;;;3.85;2.25;;;30.00;1.00;;;;;;5005588;28;20257;-81
2023/08/14 11:01:03;;;;;;;2.38;2.00;;;29.60;1.00;;;;;;5015478;28;20156;-81
2023/08/14 11:03:55;;;;;;;2.92;2.25;;;29.50;1.00;;;;;;5007167;28;20294;-81
2023/08/14 11:06:25;;;;;;;3.88;2.40;;;29.20;1.00;;;;;;4995688;28;20215;-82
2023/08/14 11:09:11;;;;;;;2.70;2.30;;;29.10;1.00;;;;;;4996382;28;20184;-80
2023/08/14 11:11:46;;;;;;;3.78;2.50;;;29.20;1.00;;;;;;4978264;28;20690;-80
2023/08/14 11:14:12;;;;;;;2.85;2.30;;;28.90;1.00;;;;;;4978292;28;20200;-80
2023/08/14 11:16:38;;;;;;;3.80;2.28;;;28.70;1.00;;;;;;4979277;28;20774;-80
2023/08/14 11:19:07;;;;;;;3.60;2.67;;;28.80;1.00;;;;;;4997231;28;20526;-81
2023/08/14 11:21:35;;;;;;;2.95;2.20;;;29.40;1.00;;;;;;5033162;23;20607;-87
2023/08/14 11:24:10;;;;;;;3.53;2.30;;;29.10;1.00;;;;;;5017252;28;20265;-88
2023/08/14 11:26:35;;;;;;;3.50;2.60;;;29.20;1.00;;;;;;5016833;28;20174;-85
2023/08/14 11:29:01;;;;;;;3.90;2.53;;;29.40;1.00;;;;;;4997402;28;20187;-86
2023/08/14 11:31:26;;;;;;;5.70;2.40;;;29.50;1.00;;;;;;4996682;28;20215;-86
2023/08/14 11:33:52;;;;;;;3.00;2.70;;;29.60;1.00;;;;;;4997294;28;20179;-86
2023/08/14 11:36:18;;;;;;;2.70;2.30;;;29.50;1.00;;;;;;4997345;28;20241;-86
2023/08/14 11:38:44;;;;;;;4.57;2.60;;;29.70;1.00;;;;;;5014657;28;20187;-86
2023/08/14 11:41:10;;;;;;;3.00;2.40;;;29.70;1.00;;;;;;4997416;28;20176;-86
2023/08/14 11:43:36;;;;;;;5.43;2.60;;;29.40;1.00;;;;;;4997094;28;20179;-87
2023/08/14 11:46:03;;;;;;;3.22;2.20;;;29.30;1.00;;;;;;4997183;28;20179;-86
2023/08/14 11:48:28;;;;;;;2.83;2.50;;;29.30;1.00;;;;;;4997387;28;20199;-85
2023/08/14 11:50:54;;;;;;;3.88;2.60;;;29.40;1.00;;;;;;4997462;28;20191;-87
2023/08/14 11:53:21;;;;;;;7.05;2.38;;;29.60;1.00;;;;;;4997012;28;20561;-87
2023/08/14 11:55:46;;;;;;;3.60;2.55;;;29.70;1.00;;;;;;4997241;28;20199;-86
2023/08/14 11:58:13;;;;;;;3.78;2.38;;;29.80;1.00;;;;;;4997274;28;20195;-87
2023/08/14 12:00:39;;;;;;;2.55;2.05;;;29.70;1.00;;;;;;5014357;28;20223;-86
2023/08/14 12:03:06;;;;;;;3.08;2.20;;;29.60;1.00;;;;;;4997985;28;20171;-89
2023/08/14 12:05:32;;;;;;;2.38;2.17;;;29.30;1.00;;;;;;4997827;28;20266;-86
2023/08/14 12:08:02;;;;;;;3.08;2.60;;;29.30;1.00;;;;;;4996607;28;20203;-86
2023/08/14 12:10:32;;;;;;;3.28;2.22;;;29.20;1.00;;;;;;5014809;28;20183;-85
2023/08/14 12:12:58;;;;;;;2.35;2.15;;;29.10;1.00;;;;;;4996809;28;20185;-85
2023/08/14 12:15:23;;;;;;;3.25;2.30;;;29.00;1.00;;;;;;4996739;28;20208;-88
2023/08/14 12:17:49;;;;;;;3.35;2.15;;;29.10;1.00;;;;;;4997042;28;20199;-88
2023/08/14 12:20:16;;;;;;;3.53;2.13;;;29.00;1.00;;;;;;5014758;28;20165;-86
2023/08/14 12:22:42;;;;;;;3.30;2.17;;;29.10;1.00;;;;;;4996678;28;20233;-86
2023/08/14 12:25:08;;;;;;;3.97;2.50;;;29.20;1.00;;;;;;5014393;28;20172;-88
2023/08/14 12:27:34;;;;;;;3.22;2.20;;;29.10;1.00;;;;;;5014288;28;20234;-85
2023/08/14 12:30:00;;;;;;;3.00;2.30;;;28.90;1.00;;;;;;4997208;28;20194;-87
2023/08/14 12:32:26;;;;;;;2.97;2.63;;;28.70;1.00;;;;;;4996619;28;20176;-86
2023/08/14 12:34:52;;;;;;;2.58;2.20;;;28.40;1.00;;;;;;4996765;28;20210;-86
2023/08/14 12:37:18;;;;;;;3.13;2.50;;;28.50;1.00;;;;;;4996402;28;20214;-86
2023/08/14 12:39:50;;;;;;;3.47;2.33;;;28.40;1.00;;;;;;4996643;28;20179;-88
2023/08/14 12:42:16;;;;;;;3.78;2.58;;;28.30;1.00;;;;;;5015151;28;20237;-87
2023/08/14 12:44:43;;;;;;;2.95;2.50;;;28.40;1.00;;;;;;4997045;28;20658;-86
2023/08/14 12:47:08;;;;;;;4.32;2.50;;;28.50;1.00;;;;;;4997673;28;20199;-87
2023/08/14 12:49:36;;;;;;;3.40;2.17;;;28.50;1.00;;;;;;4996431;28;20183;-86
2023/08/14 12:52:02;;;;;;;2.40;2.20;;;28.40;1.00;;;;;;4996219;28;20179;-87
2023/08/14 12:54:27;;;;;;;3.92;2.10;;;28.50;1.00;;;;;;4996252;28;20637;-87
2023/08/14 12:56:54;;;;;;;3.33;2.20;;;28.50;1.00;;;;;;4995719;28;20246;-85
2023/08/14 12:59:20;;;;;;;3.97;2.42;;;28.60;1.00;;;;;;5013673;28;20176;-85